Time;durP1;ratioP1;P1;durP2;ratioP2;P2;SDS_P1;SDS_P2;PMS_P1;PMS_P2;Temp;Humidity;BMP_temperature;BMP_pressure;BME280_temperature;BME280_humidity;BME280_pressure;Samples;Min_cycle;Max_cycle;Signal;HPM_P1;HPM_P2
2022/01/18 00:01:26;;;;;;;25.23;13.10;;;;;;;0.54;71.07;97145.63;4885065;29;20051;-81
2022/01/18 00:03:51;;;;;;;25.15;12.30;;;;;;;0.58;72.81;97131.06;4900472;29;20047;-80
2022/01/18 00:06:17;;;;;;;27.77;13.00;;;;;;;1.01;73.09;97174.09;4900167;29;20040;-80
2022/01/18 00:08:43;;;;;;;23.65;12.45;;;;;;;1.12;72.80;97171.38;4900163;29;20051;-79
2022/01/18 00:11:09;;;;;;;24.92;13.00;;;;;;;1.33;72.59;97197.59;4917327;29;20054;-80
2022/01/18 00:14:24;;;;;;;24.58;12.15;;;;;;;1.18;72.34;97155.94;4914942;29;20531;-81
2022/01/18 00:18:52;;;;;;;26.02;13.18;;;;;;;1.47;72.21;97203.34;4900756;29;20054;-80
2022/01/18 00:24:03;;;;;;;24.70;12.48;;;;;;;1.17;72.10;97171.31;4921468;29;20044;-79
2022/01/18 00:26:31;;;;;;;22.20;12.25;;;;;;;1.10;71.61;97167.16;4895866;29;20047;-81
2022/01/18 00:29:01;;;;;;;25.85;12.95;;;;;;;1.42;72.14;97230.78;4921490;29;20024;-83
2022/01/18 00:34:02;;;;;;;26.45;14.20;;;;;;;1.23;72.11;97227.59;4914332;29;20040;-81
2022/01/18 00:38:56;;;;;;;32.03;14.43;;;;;;;0.54;72.28;97094.44;4901391;29;20039;-83
2022/01/18 00:41:24;;;;;;;25.25;13.80;;;;;;;1.24;72.53;97206.25;4900731;29;20573;-82
2022/01/18 00:43:51;;;;;;;27.25;13.68;;;;;;;1.10;72.24;97190.22;4884570;29;20516;-81
2022/01/18 00:46:17;;;;;;;30.85;14.55;;;;;;;0.64;71.95;97119.91;4885120;29;20099;-82
2022/01/18 00:48:43;;;;;;;34.13;16.00;;;;;;;1.32;71.48;97237.75;4902775;29;20040;-83
2022/01/18 00:51:13;;;;;;;33.17;16.17;;;;;;;0.46;71.54;97121.81;4926951;29;20042;-82
2022/01/18 00:53:42;;;;;;;31.35;15.48;;;;;;;1.45;71.93;97263.22;4935913;28;20044;-81
2022/01/18 00:58:42;;;;;;;28.55;14.80;;;;;;;1.48;71.84;97268.31;4918684;29;20446;-82
2022/01/18 01:01:09;;;;;;;28.45;14.70;;;;;;;1.01;71.82;97196.28;4902742;29;20040;-82
2022/01/18 01:03:35;;;;;;;26.90;15.30;;;;;;;1.61;72.21;97294.63;4902967;29;20044;-83
2022/01/18 01:06:01;;;;;;;23.95;13.35;;;;;;;1.58;71.46;97292.09;4888929;29;20040;-82
2022/01/18 01:08:28;;;;;;;26.88;14.32;;;;;;;1.03;71.90;97215.03;4900344;29;20064;-83
2022/01/18 01:10:54;;;;;;;27.20;14.57;;;;;;;1.49;72.27;97286.22;4916074;29;20415;-83
2022/01/18 01:13:20;;;;;;;25.70;13.80;;;;;;;0.83;71.29;97190.50;4899709;29;20099;-83
2022/01/18 01:18:44;;;;;;;28.52;14.73;;;;;;;0.75;71.84;97180.34;4899763;29;20507;-82
2022/01/18 01:32:34;;;;;;;41.97;20.73;;;;;;;1.50;71.77;97298.16;4899738;29;20044;-81
2022/01/18 01:35:09;;;;;;;49.03;22.25;;;;;;;0.49;71.31;97142.28;4917880;29;20048;-82
2022/01/18 01:43:23;;;;;;;44.80;21.92;;;;;;;0.97;72.16;97225.38;4917265;29;20047;-81
2022/01/18 01:45:51;;;;;;;45.13;21.23;;;;;;;1.58;71.91;97313.44;4890183;29;20044;-82
2022/01/18 01:48:18;;;;;;;44.67;20.60;;;;;;;1.85;71.97;97382.38;4915544;29;20424;-81
2022/01/18 01:50:49;;;;;;;44.70;20.73;;;;;;;1.31;71.91;97277.06;4902235;29;20136;-81
2022/01/18 01:53:17;;;;;;;62.08;26.15;;;;;;;1.15;71.77;97253.31;4871368;29;20048;-82
2022/01/18 01:55:44;;;;;;;56.90;24.92;;;;;;;1.41;72.17;97303.41;4916877;29;20546;-81
2022/01/18 01:58:10;;;;;;;65.40;27.92;;;;;;;1.23;71.83;97290.81;4916518;29;20051;-81
2022/01/18 02:00:48;;;;;;;62.53;27.52;;;;;;;1.07;71.72;97262.81;4885202;29;20055;-82
2022/01/18 02:03:15;;;;;;;55.33;24.83;;;;;;;1.55;72.13;97331.41;4932978;29;20051;-83
2022/01/18 02:05:41;;;;;;;58.78;26.35;;;;;;;1.67;71.87;97374.00;4909179;29;20044;-81
2022/01/18 02:08:07;;;;;;;48.67;22.05;;;;;;;1.77;72.29;97392.69;4929699;28;20064;-81
2022/01/18 02:10:38;;;;;;;42.88;20.60;;;;;;;1.48;72.32;97353.72;4922570;29;20028;-80
2022/01/18 02:13:06;;;;;;;36.42;17.55;;;;;;;1.72;72.28;97404.75;4906136;29;20032;-81
2022/01/18 02:15:38;;;;;;;43.17;20.30;;;;;;;1.61;72.03;97398.00;4917398;29;20095;-82
2022/01/18 02:23:33;;;;;;;33.30;16.00;;;;;;;1.76;72.32;97432.91;4914911;29;20608;-81
2022/01/18 02:25:59;;;;;;;32.50;17.00;;;;;;;1.74;72.43;97428.66;4883416;29;20063;-81
2022/01/18 02:28:27;;;;;;;34.88;17.25;;;;;;;1.76;72.24;97435.47;4898934;29;20040;-80
2022/01/18 02:30:54;;;;;;;36.63;17.20;;;;;;;1.54;72.57;97408.34;4916280;29;20497;-80
2022/01/18 02:33:21;;;;;;;33.80;17.27;;;;;;;1.50;72.26;97392.16;4884115;29;20555;-81
2022/01/18 02:35:48;;;;;;;34.42;17.88;;;;;;;1.79;72.15;97453.38;4899999;29;20048;-82
2022/01/18 02:38:14;;;;;;;35.83;17.40;;;;;;;1.67;71.34;97462.91;4919043;29;20047;-82
2022/01/18 02:40:41;;;;;;;32.53;15.57;;;;;;;1.56;71.77;97470.72;4886823;29;20067;-80
2022/01/18 02:45:56;;;;;;;32.33;16.10;;;;;;;1.41;72.46;97453.78;4917620;29;20048;-80
2022/01/18 02:48:24;;;;;;;32.78;15.75;;;;;;;1.29;71.79;97458.16;4902440;29;20045;-80
2022/01/18 02:50:50;;;;;;;27.48;13.93;;;;;;;1.32;71.82;97468.38;4901994;29;20123;-81
2022/01/18 02:53:18;;;;;;;27.15;14.02;;;;;;;1.48;72.02;97493.88;4901684;29;20058;-80
2022/01/18 02:55:50;;;;;;;27.60;13.43;;;;;;;1.19;72.49;97441.16;4902201;29;20048;-82
2022/01/18 02:58:24;;;;;;;22.85;12.05;;;;;;;1.55;72.46;97507.47;4902264;29;20055;-79
2022/01/18 03:03:32;;;;;;;21.13;11.32;;;;;;;1.37;72.64;97495.66;4921993;29;20433;-79
2022/01/18 03:06:00;;;;;;;20.15;10.45;;;;;;;1.26;72.34;97482.94;4906604;29;20363;-80
2022/01/18 03:08:27;;;;;;;17.35;9.52;;;;;;;1.32;72.36;97503.41;4922008;29;20060;-82
2022/01/18 03:10:53;;;;;;;19.98;9.68;;;;;;;0.71;72.37;97424.47;4903907;29;20047;-80
2022/01/18 03:13:19;;;;;;;18.10;9.30;;;;;;;1.04;71.30;97506.16;4933173;29;20040;-81
2022/01/18 03:15:45;;;;;;;18.42;9.98;;;;;;;1.23;72.55;97544.47;4898215;29;20055;-82
2022/01/18 03:18:11;;;;;;;18.67;9.23;;;;;;;0.85;72.53;97495.22;4905141;29;20226;-81
2022/01/18 03:20:38;;;;;;;19.50;9.20;;;;;;;1.08;73.01;97525.78;4919561;29;20079;-80
2022/01/18 03:23:09;;;;;;;17.95;9.15;;;;;;;0.53;72.46;97437.38;4919056;29;20083;-81
2022/01/18 03:28:05;;;;;;;14.82;7.72;;;;;;;1.22;72.92;97579.50;4901783;29;20048;-80
2022/01/18 03:30:35;;;;;;;14.00;7.85;;;;;;;1.23;73.24;97590.56;4870790;29;20103;-79
2022/01/18 03:33:03;;;;;;;13.50;7.78;;;;;;;1.16;72.67;97606.00;4870574;29;20587;-81
2022/01/18 03:35:29;;;;;;;14.25;7.50;;;;;;;0.95;72.64;97596.72;4901702;29;20087;-80
2022/01/18 03:37:55;;;;;;;11.48;7.00;;;;;;;0.88;73.04;97615.56;4918741;29;20035;-80
2022/01/18 03:40:23;;;;;;;13.40;7.43;;;;;;;0.77;72.91;97613.06;4901773;29;20044;-81
2022/01/18 03:42:50;;;;;;;15.45;7.88;;;;;;;0.96;73.04;97644.53;4918990;29;20044;-81
2022/01/18 03:45:24;;;;;;;14.75;7.65;;;;;;;1.00;72.37;97653.91;4903180;29;20562;-81
2022/01/18 03:47:51;;;;;;;15.20;7.90;;;;;;;0.14;72.85;97530.53;4907781;29;20071;-82
2022/01/18 03:50:17;;;;;;;13.90;7.72;;;;;;;1.02;73.05;97652.19;4919523;28;20044;-79
2022/01/18 03:52:44;;;;;;;15.18;8.75;;;;;;;0.99;72.75;97641.97;4941351;28;20024;-78
2022/01/18 03:55:13;;;;;;;15.38;8.02;;;;;;;0.67;72.51;97588.34;4896967;29;20048;-82
2022/01/18 03:57:39;;;;;;;14.05;7.65;;;;;;;1.05;72.22;97679.50;4886993;29;20111;-78
2022/01/18 04:00:09;;;;;;;14.38;7.60;;;;;;;0.83;72.82;97643.75;4901591;29;20119;-79
2022/01/18 04:02:38;;;;;;;11.40;6.30;;;;;;;0.60;72.82;97615.69;4918338;29;20040;-79
2022/01/18 04:05:04;;;;;;;11.25;6.70;;;;;;;0.80;72.33;97666.78;4885472;29;20586;-78
2022/01/18 04:07:30;;;;;;;11.68;5.72;;;;;;;0.79;73.50;97672.78;4883863;29;20040;-80
2022/01/18 04:09:55;;;;;;;10.18;5.78;;;;;;;0.69;73.15;97658.31;4899392;29;20047;-77
2022/01/18 04:12:22;;;;;;;10.07;6.03;;;;;;;0.82;73.14;97688.13;4916765;29;20040;-80
2022/01/18 04:14:48;;;;;;;11.55;5.25;;;;;;;0.59;72.53;97689.03;4900171;29;20523;-79
2022/01/18 04:30:43;;;;;;;12.55;6.68;;;;;;;0.86;72.42;97753.00;4900987;29;20152;-78
2022/01/18 04:33:09;;;;;;;12.20;5.82;;;;;;;0.69;72.55;97733.41;4899933;29;20044;-80
2022/01/18 04:35:35;;;;;;;10.73;5.85;;;;;;;0.88;72.88;97762.38;4899661;29;20036;-79
2022/01/18 04:38:01;;;;;;;11.88;6.07;;;;;;;0.80;72.84;97751.28;4900124;29;20043;-78
2022/01/18 04:40:30;;;;;;;11.52;6.20;;;;;;;0.75;73.15;97743.63;4884017;29;20054;-79
2022/01/18 04:51:11;;;;;;;10.18;5.07;;;;;;;0.87;72.96;97805.94;4876958;29;20040;-80
2022/01/18 04:53:44;;;;;;;10.27;5.40;;;;;;;0.87;73.27;97814.47;4909676;29;20064;-79
2022/01/18 04:56:15;;;;;;;9.85;4.82;;;;;;;0.60;72.25;97785.47;4901283;29;20190;-79
2022/01/18 04:58:42;;;;;;;10.10;4.97;;;;;;;0.79;73.04;97821.28;4900084;29;20048;-77
2022/01/18 05:01:28;;;;;;;11.55;5.07;;;;;;;0.81;72.86;97832.38;4900028;29;20139;-78
2022/01/18 05:03:53;;;;;;;9.15;4.78;;;;;;;0.74;72.83;97838.38;4917443;29;20129;-78
2022/01/18 05:06:20;;;;;;;11.40;5.05;;;;;;;0.34;73.30;97770.13;4920038;29;20127;-78
2022/01/18 05:08:47;;;;;;;8.60;4.65;;;;;;;0.74;72.69;97835.81;4905954;29;20044;-81
2022/01/18 05:11:16;;;;;;;7.93;4.78;;;;;;;0.73;73.14;97852.88;4904143;29;20072;-80
2022/01/18 05:14:28;;;;;;;8.18;4.35;;;;;;;0.60;73.19;97831.53;4907043;29;20048;-80
2022/01/18 05:24:32;;;;;;;10.13;4.10;;;;;;;0.64;73.07;97867.38;4930000;29;20048;-81
2022/01/18 05:26:59;;;;;;;7.45;3.72;;;;;;;0.49;72.88;97881.91;4909739;29;20036;-78
2022/01/18 05:29:26;;;;;;;7.82;4.15;;;;;;;0.33;73.03;97873.34;4933526;28;20044;-79
2022/01/18 05:31:52;;;;;;;7.72;3.78;;;;;;;0.19;72.94;97828.97;4923969;28;20028;-78
2022/01/18 05:34:18;;;;;;;9.05;4.35;;;;;;;0.31;73.06;97848.63;4940564;28;20043;-79
2022/01/18 05:36:47;;;;;;;9.00;4.80;;;;;;;0.75;72.98;97914.34;4940364;28;20072;-78
2022/01/18 05:39:13;;;;;;;8.60;4.40;;;;;;;0.62;73.10;97895.56;4920871;29;20043;-78
2022/01/18 05:41:46;;;;;;;7.35;4.18;;;;;;;0.69;73.16;97909.22;4937825;29;20047;-78
2022/01/18 05:44:17;;;;;;;7.72;4.07;;;;;;;0.60;72.88;97908.34;4904710;29;20099;-78
2022/01/18 05:46:46;;;;;;;7.35;4.13;;;;;;;0.47;73.17;97900.66;4904742;29;20031;-78
2022/01/18 05:49:35;;;;;;;7.75;4.03;;;;;;;0.44;72.66;97912.59;4930667;29;20044;-80
2022/01/18 05:52:04;;;;;;;6.25;3.58;;;;;;;0.68;72.83;97953.59;4913286;29;20040;-78
2022/01/18 05:54:31;;;;;;;8.45;3.83;;;;;;;-0.03;72.40;97850.25;4913642;29;20044;-78
2022/01/18 05:56:59;;;;;;;4.93;2.97;;;;;;;0.56;72.22;97969.78;4927408;29;20100;-79
2022/01/18 05:59:34;;;;;;;5.13;3.22;;;;;;;-0.29;72.74;97851.88;4896279;29;20068;-77
2022/01/18 06:02:03;;;;;;;4.78;2.80;;;;;;;0.35;72.88;97955.22;4924555;29;20043;-80
2022/01/18 06:07:14;;;;;;;4.50;2.70;;;;;;;0.40;73.25;98003.03;4918998;29;20135;-79
2022/01/18 06:09:40;;;;;;;3.50;2.15;;;;;;;0.17;73.03;97958.59;4886850;29;20120;-81
2022/01/18 06:12:06;;;;;;;3.80;2.40;;;;;;;0.26;72.35;97976.50;4903298;29;20044;-79
2022/01/18 06:14:33;;;;;;;3.22;2.40;;;;;;;0.10;73.11;97971.34;4923605;29;20087;-80
2022/01/18 06:17:02;;;;;;;4.50;2.55;;;;;;;-0.47;72.49;97879.06;4908565;29;20047;-80
2022/01/18 06:19:29;;;;;;;7.13;2.50;;;;;;;0.17;72.64;98000.38;4926898;29;20044;-82
2022/01/18 06:21:54;;;;;;;3.67;2.25;;;;;;;0.32;73.11;98026.88;4907056;29;20051;-79
2022/01/18 06:24:25;;;;;;;5.18;2.90;;;;;;;0.24;73.51;98009.78;4892576;29;20122;-81
2022/01/18 06:26:51;;;;;;;2.97;2.10;;;;;;;0.19;72.84;98006.34;4924409;29;20084;-79
2022/01/18 06:29:23;;;;;;;4.05;2.25;;;;;;;0.12;72.73;98005.47;4893384;29;20070;-81
2022/01/18 06:31:54;;;;;;;;;;;;;;;0.28;73.16;98044.78;4926677;29;20040;-80
2022/01/18 06:34:25;;;;;;;4.30;2.70;;;;;;;0.18;72.92;98058.34;4893473;29;19918;-80
2022/01/18 06:37:07;;;;;;;4.18;2.40;;;;;;;0.21;72.51;98060.94;4910615;29;20044;-79
2022/01/18 06:39:34;;;;;;;5.28;2.53;;;;;;;0.21;72.76;98086.53;4879903;29;20051;-79
2022/01/18 06:42:00;;;;;;;4.28;2.70;;;;;;;0.24;72.92;98078.88;4894073;29;20472;-80
2022/01/18 06:44:26;;;;;;;3.70;2.10;;;;;;;0.21;72.55;98086.53;4930933;29;20036;-78
2022/01/18 06:46:54;;;;;;;3.45;1.90;;;;;;;0.09;73.16;98073.69;4917616;29;20055;-80
2022/01/18 06:49:21;;;;;;;3.50;1.70;;;;;;;0.26;72.62;98096.78;4894406;29;20070;-80
2022/01/18 06:51:47;;;;;;;2.53;1.75;;;;;;;0.03;72.41;98083.88;4892721;29;20548;-79
2022/01/18 06:54:16;;;;;;;2.60;1.60;;;;;;;0.17;73.26;98128.28;4873184;29;20044;-80
2022/01/18 06:56:46;;;;;;;3.80;1.95;;;;;;;-0.51;72.49;98028.09;4903891;29;20032;-81
2022/01/18 06:59:13;;;;;;;3.00;1.90;;;;;;;-0.04;73.01;98100.88;4882042;29;20040;-79
2022/01/18 07:01:40;;;;;;;2.45;1.70;;;;;;;0.12;72.42;98132.50;4917319;29;20146;-83
2022/01/18 07:04:06;;;;;;;4.05;2.28;;;;;;;-0.27;72.91;98073.44;4915464;29;20024;-81
2022/01/18 07:06:35;;;;;;;3.47;1.80;;;;;;;-0.29;72.41;98058.94;4897230;29;20048;-78
2022/01/18 07:09:02;;;;;;;3.95;2.10;;;;;;;0.23;72.49;98147.91;4917178;29;20048;-79
2022/01/18 07:11:30;;;;;;;4.78;2.22;;;;;;;-0.27;72.38;98082.81;4923100;28;20113;-81
2022/01/18 07:13:59;;;;;;;8.35;3.55;;;;;;;-0.03;72.94;98112.81;4922959;29;20076;-78
2022/01/18 07:16:26;;;;;;;5.70;3.42;;;;;;;-0.54;72.63;98020.41;4931720;29;20056;-79
2022/01/18 07:18:56;;;;;;;6.20;3.00;;;;;;;0.24;72.31;98173.53;4925720;29;20131;-78
2022/01/18 07:21:22;;;;;;;3.70;2.22;;;;;;;-0.05;72.29;98140.09;4878062;29;20054;-79
2022/01/18 07:23:52;;;;;;;4.35;2.50;;;;;;;-0.72;72.23;98044.97;4927390;29;20039;-78
2022/01/18 07:26:18;;;;;;;3.22;2.08;;;;;;;-1.38;71.76;97940.56;4913187;29;20071;-82
2022/01/18 07:28:43;;;;;;;4.53;2.17;;;;;;;0.19;71.17;98207.63;4904990;29;20508;-82
2022/01/18 07:31:09;;;;;;;4.15;1.90;;;;;;;0.15;72.22;98211.84;4903468;29;20046;-80
2022/01/18 07:33:39;;;;;;;2.65;1.67;;;;;;;0.16;71.45;98216.09;4903314;29;20036;-78
2022/01/18 07:36:05;;;;;;;3.13;1.63;;;;;;;0.18;71.67;98218.69;4905418;29;20075;-78
2022/01/18 07:38:31;;;;;;;2.72;1.98;;;;;;;0.27;71.76;98240.09;4876460;29;20066;-78
2022/01/18 07:40:57;;;;;;;5.78;1.75;;;;;;;0.12;71.74;98199.88;4902511;29;20045;-80
2022/01/18 07:43:23;;;;;;;3.53;2.05;;;;;;;0.19;71.39;98230.66;4891256;29;20036;-80
2022/01/18 07:45:50;;;;;;;3.47;2.00;;;;;;;0.29;71.11;98251.19;4907005;29;20061;-78
2022/01/18 07:48:22;;;;;;;4.32;1.88;;;;;;;0.23;71.83;98251.16;4893347;29;20047;-81
2022/01/18 07:51:03;;;;;;;3.72;2.08;;;;;;;0.38;70.81;98276.00;4932441;29;20040;-79
2022/01/18 07:53:28;;;;;;;3.10;2.08;;;;;;;0.37;71.17;98293.88;4919468;29;20040;-79
2022/01/18 07:55:57;;;;;;;4.07;1.95;;;;;;;0.45;70.91;98295.66;4938156;29;20052;-81
2022/01/18 07:58:26;;;;;;;8.20;2.47;;;;;;;0.40;70.74;98281.13;4900967;29;20100;-77
2022/01/18 08:00:52;;;;;;;3.72;2.25;;;;;;;0.54;70.47;98310.25;4919509;29;20062;-80
2022/01/18 08:03:18;;;;;;;2.78;2.20;;;;;;;0.45;70.84;98300.78;4935842;29;20095;-78
2022/01/18 08:05:45;;;;;;;2.45;1.88;;;;;;;0.31;70.68;98289.59;4917147;29;20048;-80
2022/01/18 08:08:11;;;;;;;4.32;1.80;;;;;;;0.48;70.12;98335.81;4918343;29;20648;-79
2022/01/18 08:10:37;;;;;;;3.33;1.50;;;;;;;0.50;69.72;98339.22;4920308;29;20051;-78
2022/01/18 08:13:04;;;;;;;3.75;1.92;;;;;;;0.56;69.68;98338.41;4919278;29;20059;-80
2022/01/18 08:15:38;;;;;;;4.38;2.03;;;;;;;0.48;69.75;98340.03;4935877;29;20074;-79
2022/01/18 08:18:11;;;;;;;4.55;2.10;;;;;;;0.32;69.78;98301.53;4918802;29;20060;-79
2022/01/18 08:20:39;;;;;;;3.50;1.80;;;;;;;0.69;69.84;98357.28;4899619;29;20091;-79
2022/01/18 08:23:06;;;;;;;3.65;1.80;;;;;;;0.69;69.69;98353.03;4922155;29;20523;-81
2022/01/18 08:25:31;;;;;;;3.13;1.70;;;;;;;0.73;68.66;98374.41;4917469;29;20052;-80
2022/01/18 08:27:57;;;;;;;3.47;2.00;;;;;;;0.66;69.17;98370.06;4896698;29;20459;-81
2022/01/18 08:30:30;;;;;;;6.97;3.17;;;;;;;0.62;69.80;98373.44;4922519;29;20656;-85
2022/01/18 08:32:58;;;;;;;4.05;2.53;;;;;;;0.13;68.71;98280.91;4906865;29;20396;-82
2022/01/18 08:35:25;;;;;;;10.18;3.88;;;;;;;0.85;69.20;98394.97;4892998;29;20066;-79
2022/01/18 08:37:56;;;;;;;10.65;3.90;;;;;;;0.37;68.45;98328.03;4910232;29;20048;-82
2022/01/18 08:40:22;;;;;;;8.35;3.40;;;;;;;0.59;69.12;98356.38;4889366;29;20092;-79
2022/01/18 08:42:48;;;;;;;7.10;2.85;;;;;;;0.43;68.44;98334.91;4905069;29;20051;-80
2022/01/18 08:45:14;;;;;;;4.88;3.00;;;;;;;0.54;68.44;98351.22;4907161;29;20122;-82
2022/01/18 08:47:40;;;;;;;5.78;3.13;;;;;;;0.85;68.26;98406.94;4902948;29;20524;-79
2022/01/18 08:50:06;;;;;;;4.03;2.20;;;;;;;0.82;68.20;98400.06;4875438;29;20158;-81
2022/01/18 08:52:32;;;;;;;5.38;2.00;;;;;;;0.83;68.47;98404.34;4940483;28;20153;-81
2022/01/18 08:54:57;;;;;;;4.57;2.38;;;;;;;1.00;67.79;98429.22;4921730;29;20052;-81
2022/01/18 08:57:29;;;;;;;3.83;2.47;;;;;;;0.06;67.91;98283.41;4905615;29;20044;-79
2022/01/18 08:59:55;;;;;;;4.10;2.30;;;;;;;0.77;67.30;98412.00;4886684;29;20480;-79
2022/01/18 09:02:22;;;;;;;5.03;2.78;;;;;;;0.25;67.16;98341.56;4902350;29;20059;-79
2022/01/18 09:04:48;;;;;;;4.90;2.80;;;;;;;0.87;67.40;98454.75;4925014;29;20052;-78
2022/01/18 09:07:17;;;;;;;4.25;2.17;;;;;;;0.59;67.72;98426.34;4889726;29;20112;-80
2022/01/18 09:09:46;;;;;;;4.00;2.40;;;;;;;0.83;67.51;98462.41;4889936;29;20524;-80
2022/01/18 09:12:15;;;;;;;5.32;2.45;;;;;;;0.81;66.79;98475.19;4903923;29;20492;-84
2022/01/18 09:14:40;;;;;;;6.20;2.67;;;;;;;0.75;67.23;98470.03;4904448;29;20040;-83
2022/01/18 09:17:08;;;;;;;6.38;2.88;;;;;;;1.05;67.19;98499.31;4902559;29;20056;-82
2022/01/18 09:19:37;;;;;;;7.75;2.88;;;;;;;0.46;67.11;98398.91;4886873;29;20075;-81
2022/01/18 09:22:03;;;;;;;5.03;2.60;;;;;;;1.15;67.07;98500.25;4887038;29;20074;-79
2022/01/18 09:24:30;;;;;;;4.25;2.55;;;;;;;0.65;66.44;98412.75;4891532;29;20060;-80
2022/01/18 09:26:57;;;;;;;4.97;2.53;;;;;;;1.33;66.07;98507.22;4893807;29;20512;-80
2022/01/18 09:29:29;;;;;;;5.07;2.55;;;;;;;1.37;65.43;98515.78;4893962;29;20408;-84
2022/01/18 09:31:57;;;;;;;5.43;2.20;;;;;;;1.00;65.74;98458.28;4893617;29;20043;-82
2022/01/18 09:34:23;;;;;;;4.10;2.45;;;;;;;1.50;65.32;98536.41;4902605;29;20932;-80
2022/01/18 09:36:50;;;;;;;3.05;2.00;;;;;;;1.68;65.47;98549.38;4904809;29;20154;-81
2022/01/18 09:39:16;;;;;;;4.70;1.98;;;;;;;0.96;64.79;98448.84;4920545;29;20043;-81
2022/01/18 09:41:50;;;;;;;4.40;2.50;;;;;;;1.45;64.05;98568.84;4904197;29;20043;-81
2022/01/18 09:44:16;;;;;;;4.47;1.90;;;;;;;1.33;64.13;98554.22;4904629;29;20044;-81
2022/01/18 09:46:44;;;;;;;3.13;1.48;;;;;;;0.84;63.55;98493.16;4904097;29;20048;-80
2022/01/18 09:49:12;;;;;;;2.70;1.70;;;;;;;0.71;64.17;98515.22;4923935;29;20611;-80
2022/01/18 09:51:38;;;;;;;3.40;1.95;;;;;;;1.14;64.18;98583.09;4923792;29;20051;-79
2022/01/18 09:54:04;;;;;;;5.32;2.00;;;;;;;0.79;64.14;98517.84;4921196;29;20096;-79
2022/01/18 09:56:36;;;;;;;4.35;2.05;;;;;;;0.76;62.77;98507.59;4903747;29;20047;-79
2022/01/18 09:59:07;;;;;;;3.85;1.98;;;;;;;1.28;63.03;98599.47;4892266;29;20579;-80
2022/01/18 10:01:37;;;;;;;4.97;2.03;;;;;;;0.92;63.07;98512.88;4887689;29;20516;-80
2022/01/18 10:04:27;;;;;;;1.92;1.38;;;;;;;1.18;63.00;98538.72;4893483;29;20044;-79
2022/01/18 10:06:56;;;;;;;2.67;1.60;;;;;;;1.02;62.80;98530.91;4917781;29;20067;-81
2022/01/18 10:09:22;;;;;;;4.07;1.80;;;;;;;1.14;61.87;98553.22;4901160;29;20076;-80
2022/01/18 10:12:08;;;;;;;3.30;1.98;;;;;;;1.49;62.30;98628.72;4884166;29;20048;-81
2022/01/18 10:14:37;;;;;;;3.45;1.92;;;;;;;1.41;62.22;98625.22;4872493;29;20068;-81
2022/01/18 10:17:37;;;;;;;4.38;2.22;;;;;;;0.96;61.66;98576.09;4897053;29;20192;-81
2022/01/18 10:20:29;;;;;;;2.47;1.67;;;;;;;0.90;61.98;98618.75;4826885;29;20088;-82
2022/01/18 10:23:02;;;;;;;2.60;1.83;;;;;;;0.24;61.33;98536.88;4886847;29;20048;-83
2022/01/18 10:25:36;;;;;;;2.55;1.80;;;;;;;0.33;62.19;98525.06;4886956;29;20095;-83
2022/01/18 10:28:27;;;;;;;6.65;4.05;;;;;;;1.08;61.48;98647.97;4917117;29;20068;-79
2022/01/18 10:31:06;;;;;;;8.50;1.80;;;;;;;-0.31;61.36;98466.25;4907046;29;20040;-81
2022/01/18 10:40:50;;;;;;;3.22;1.77;;;;;;;0.57;61.03;98645.66;4849930;29;20056;-81
2022/01/18 10:43:30;;;;;;;3.40;1.80;;;;;;;0.79;61.14;98704.81;4901254;29;20138;-81
2022/01/18 10:46:30;;;;;;;2.90;1.92;;;;;;;0.35;61.21;98651.31;4901265;29;20129;-80
2022/01/18 10:49:24;;;;;;;3.28;1.65;;;;;;;-0.58;60.94;98499.13;4900611;29;20040;-81
2022/01/18 10:52:10;;;;;;;7.82;4.25;;;;;;;0.86;60.82;98721.16;4917460;29;20059;-80
2022/01/18 10:54:50;;;;;;;5.05;2.20;;;;;;;-0.19;60.00;98605.34;4899236;29;20056;-84
2022/01/18 10:57:54;;;;;;;4.53;2.00;;;;;;;-0.41;61.10;98570.91;4886820;29;20047;-88
2022/01/18 11:02:05;;;;;;;;;;;;;;;;;;;;;
2022/01/18 11:06:06;;;;;;;;;;;;;;;;;;;;;
2022/01/18 11:08:54;;;;;;;3.90;1.92;;;;;;;0.34;60.71;98785.25;4850480;29;20056;-81
2022/01/18 11:11:31;;;;;;;6.68;2.78;;;;;;;0.23;59.81;98780.81;4924186;29;20100;-85
2022/01/18 11:14:01;;;;;;;4.80;2.20;;;;;;;0.20;60.35;98787.59;4891060;29;20043;-78
2022/01/18 11:16:43;;;;;;;6.50;2.42;;;;;;;-0.56;59.95;98700.19;4968842;23;20066;-84
2022/01/18 11:19:47;;;;;;;3.78;2.03;;;;;;;-0.66;59.79;98706.81;4937605;29;20122;-83
2022/01/18 11:22:16;;;;;;;2.05;1.48;;;;;;;-0.40;59.78;98765.25;4919529;29;20050;-82
2022/01/18 11:24:58;;;;;;;2.33;1.70;;;;;;;-2.08;59.58;98541.47;4926635;29;20507;-82
2022/01/18 11:27:45;;;;;;;;;;;;;;;;;;;;;
2022/01/18 11:31:19;;;;;;;2.42;1.88;;;;;;;-0.52;59.87;98801.66;4924241;29;20048;-85
2022/01/18 11:34:03;;;;;;;3.45;1.90;;;;;;;-0.46;59.74;98829.03;4936998;29;20377;-83
2022/01/18 11:36:43;;;;;;;3.90;2.20;;;;;;;-0.94;59.40;98782.06;4939754;29;20082;-81
2022/01/18 11:39:32;;;;;;;2.60;1.83;;;;;;;-0.94;59.34;98787.16;4933563;29;20062;-83
2022/01/18 11:42:19;;;;;;;4.25;1.73;;;;;;;-0.63;60.06;98855.09;4922569;29;20039;-86
2022/01/18 11:44:51;;;;;;;4.13;1.90;;;;;;;-0.89;59.90;98858.78;4918717;29;20139;-81
2022/01/18 11:47:31;;;;;;;2.17;1.55;;;;;;;-0.80;59.55;98894.78;4933861;29;20039;-83
2022/01/18 11:49:59;;;;;;;5.53;1.90;;;;;;;-1.10;59.70;98837.88;4938540;29;20147;-82
2022/01/18 11:52:35;;;;;;;4.50;2.00;;;;;;;-1.64;59.42;98754.97;4938465;29;20093;-83
2022/01/18 11:55:03;;;;;;;4.20;2.20;;;;;;;-0.94;59.58;98894.44;4922095;29;20043;-81
2022/01/18 11:57:34;;;;;;;7.57;3.00;;;;;;;-1.30;60.11;98865.53;4942725;29;20064;-83
2022/01/18 12:00:23;;;;;;;4.47;1.95;;;;;;;-0.99;58.91;98907.09;4940424;29;20051;-81
2022/01/18 12:02:54;;;;;;;4.38;1.88;;;;;;;-1.15;59.72;98890.56;4936955;29;20139;-81
2022/01/18 12:05:25;;;;;;;4.07;1.67;;;;;;;-1.14;59.55;98915.28;4941031;29;20054;-83
2022/01/18 12:08:13;;;;;;;3.33;1.85;;;;;;;-1.25;58.84;98943.09;4933535;29;20073;-79
2022/01/18 12:10:47;;;;;;;3.75;1.75;;;;;;;-1.35;59.91;98936.03;4946138;29;20049;-82
2022/01/18 12:13:33;;;;;;;2.90;1.70;;;;;;;-1.50;59.59;98933.94;4954271;28;20047;-81
2022/01/18 12:16:10;;;;;;;4.53;1.85;;;;;;;-2.88;59.42;98706.00;4931688;29;20049;-80
2022/01/18 12:19:15;;;;;;;8.93;4.35;;;;;;;-2.12;59.24;98876.22;4905308;29;20048;-81
2022/01/18 12:21:45;;;;;;;2.97;1.60;;;;;;;-1.81;59.79;98943.34;4924699;29;20043;-81
2022/01/18 12:24:19;;;;;;;3.25;1.55;;;;;;;-1.95;59.32;98935.31;4902978;29;20099;-83
2022/01/18 12:26:48;;;;;;;2.63;1.30;;;;;;;-1.65;59.73;99000.75;4935727;29;20044;-81
2022/01/18 12:34:45;;;;;;;3.17;1.63;;;;;;;-2.42;59.54;98944.19;4932340;29;20020;-81
2022/01/18 12:37:24;;;;;;;3.05;1.80;;;;;;;-1.98;59.34;99004.94;4921986;29;20048;-82
2022/01/18 12:39:50;;;;;;;4.45;2.10;;;;;;;-1.98;59.56;99011.75;4920853;29;20634;-81
2022/01/18 12:45:08;;;;;;;3.35;1.45;;;;;;;-2.15;59.85;99004.47;4917094;29;20051;-83
2022/01/18 12:47:49;;;;;;;2.28;1.60;;;;;;;-2.38;59.67;98979.97;4909737;29;20139;-80
2022/01/18 12:50:22;;;;;;;3.15;1.60;;;;;;;-2.36;59.60;98993.63;4905938;29;20052;-78
2022/01/18 12:53:00;;;;;;;3.28;1.60;;;;;;;-2.91;59.44;98894.31;4896889;29;20065;-81
2022/01/18 12:55:48;;;;;;;2.38;1.60;;;;;;;-3.53;59.29;98795.72;4911252;29;20127;-83
2022/01/18 12:58:38;;;;;;;3.28;1.67;;;;;;;-3.52;59.62;98839.00;4923480;29;20044;-79
2022/01/18 13:01:11;;;;;;;3.03;1.58;;;;;;;-2.58;59.87;98995.53;4890853;29;20472;-79
2022/01/18 13:03:42;;;;;;;3.50;1.83;;;;;;;-2.16;59.81;99066.47;4923665;29;20039;-79
2022/01/18 13:06:15;;;;;;;6.60;4.00;;;;;;;-2.46;60.02;99041.75;4909464;29;20027;-81
2022/01/18 13:08:57;;;;;;;3.03;1.60;;;;;;;-2.58;59.75;99023.56;4931023;29;20044;-80
2022/01/18 13:11:34;;;;;;;3.95;1.98;;;;;;;-2.35;59.86;99071.81;4933000;29;20044;-81
2022/01/18 13:14:15;;;;;;;4.15;2.10;;;;;;;-2.21;60.03;99101.16;4928754;29;20104;-80
2022/01/18 13:25:05;;;;;;;3.15;1.80;;;;;;;-2.20;60.02;99138.56;4903912;29;20047;-78
2022/01/18 13:27:38;;;;;;;5.28;1.77;;;;;;;-2.31;59.89;99134.78;4914643;29;20047;-81
2022/01/18 13:30:13;;;;;;;2.92;1.83;;;;;;;-2.30;59.81;99139.09;4909594;29;20466;-83
2022/01/18 13:32:43;;;;;;;3.70;1.90;;;;;;;-2.63;60.07;99106.59;4914947;29;20047;-80
2022/01/18 13:35:28;;;;;;;3.38;2.00;;;;;;;-2.82;59.95;99072.88;4917266;29;20052;-79
2022/01/18 13:38:08;;;;;;;5.70;2.17;;;;;;;-2.47;60.22;99144.50;4911842;29;20040;-81
2022/01/18 13:40:36;;;;;;;5.00;2.30;;;;;;;-2.83;60.37;99098.28;4894624;29;20580;-81
2022/01/18 13:43:09;;;;;;;5.47;2.63;;;;;;;-2.79;60.12;99108.66;4890406;29;20039;-77